sensor_id;sensor_type;location;lat;lon;timestamp;pressure;altitude;pressure_sealevel;temperature;humidity
58785;BME280;44557;51.862;19.378;2023-02-18T00:00:47;98473.34;;;7.36;70.61
58785;BME280;44557;51.862;19.378;2023-02-18T00:02:54;98475.60;;;7.38;68.90
58785;BME280;44557;51.862;19.378;2023-02-18T00:04:56;98474.86;;;7.37;69.30
58785;BME280;44557;51.862;19.378;2023-02-18T00:06:58;98490.64;;;7.39;68.35
58785;BME280;44557;51.862;19.378;2023-02-18T00:09:00;98501.39;;;7.37;68.58
58785;BME280;44557;51.862;19.378;2023-02-18T00:11:04;98500.05;;;7.37;68.57
58785;BME280;44557;51.862;19.378;2023-02-18T00:13:06;98507.11;;;7.34;69.27
58785;BME280;44557;51.862;19.378;2023-02-18T00:15:08;98503.50;;;7.29;67.71
58785;BME280;44557;51.862;19.378;2023-02-18T00:17:10;98508.65;;;7.31;66.76
58785;BME280;44557;51.862;19.378;2023-02-18T00:19:17;98484.86;;;7.31;65.40
58785;BME280;44557;51.862;19.378;2023-02-18T00:21:18;98498.28;;;7.30;66.32
58785;BME280;44557;51.862;19.378;2023-02-18T00:23:20;98514.89;;;7.28;66.27
58785;BME280;44557;51.862;19.378;2023-02-18T00:25:21;98518.14;;;7.27;66.14
58785;BME280;44557;51.862;19.378;2023-02-18T00:27:23;98518.01;;;7.24;66.62
58785;BME280;44557;51.862;19.378;2023-02-18T00:29:24;98499.90;;;7.26;65.62
58785;BME280;44557;51.862;19.378;2023-02-18T00:31:35;98518.75;;;7.26;65.92
58785;BME280;44557;51.862;19.378;2023-02-18T00:33:37;98506.30;;;7.26;65.84
58785;BME280;44557;51.862;19.378;2023-02-18T00:35:39;98501.08;;;7.29;64.85
58785;BME280;44557;51.862;19.378;2023-02-18T00:37:41;98518.64;;;7.31;65.34
58785;BME280;44557;51.862;19.378;2023-02-18T00:39:42;98517.73;;;7.29;65.05
58785;BME280;44557;51.862;19.378;2023-02-18T00:41:44;98526.89;;;7.29;65.61
58785;BME280;44557;51.862;19.378;2023-02-18T00:43:46;98526.15;;;7.28;65.49
58785;BME280;44557;51.862;19.378;2023-02-18T00:45:48;98522.02;;;7.26;65.60
58785;BME280;44557;51.862;19.378;2023-02-18T00:47:49;98517.61;;;7.25;65.00
58785;BME280;44557;51.862;19.378;2023-02-18T00:49:51;98517.17;;;7.23;65.20
58785;BME280;44557;51.862;19.378;2023-02-18T00:51:52;98516.77;;;7.20;65.35
58785;BME280;44557;51.862;19.378;2023-02-18T00:53:54;98508.41;;;7.18;64.75
58785;BME280;44557;51.862;19.378;2023-02-18T00:55:56;98499.13;;;7.17;64.49
58785;BME280;44557;51.862;19.378;2023-02-18T00:57:57;98509.84;;;7.14;64.73
58785;BME280;44557;51.862;19.378;2023-02-18T00:59:59;98534.45;;;7.10;65.68
58785;BME280;44557;51.862;19.378;2023-02-18T01:02:00;98521.10;;;7.04;65.77
58785;BME280;44557;51.862;19.378;2023-02-18T01:04:02;98523.04;;;7.03;65.45
58785;BME280;44557;51.862;19.378;2023-02-18T01:06:05;98514.48;;;7.00;66.03
58785;BME280;44557;51.862;19.378;2023-02-18T01:08:08;98528.45;;;7.01;65.93
58785;BME280;44557;51.862;19.378;2023-02-18T01:10:10;98524.99;;;6.98;66.32
58785;BME280;44557;51.862;19.378;2023-02-18T01:12:11;98536.85;;;6.95;66.46
58785;BME280;44557;51.862;19.378;2023-02-18T01:14:13;98535.98;;;6.92;67.24
58785;BME280;44557;51.862;19.378;2023-02-18T01:16:14;98524.23;;;6.89;67.13
58785;BME280;44557;51.862;19.378;2023-02-18T01:18:17;98517.04;;;6.86;67.31
58785;BME280;44557;51.862;19.378;2023-02-18T01:20:18;98515.42;;;6.85;67.16
58785;BME280;44557;51.862;19.378;2023-02-18T01:22:21;98520.90;;;6.83;68.21
58785;BME280;44557;51.862;19.378;2023-02-18T01:24:23;98505.21;;;6.81;67.42
58785;BME280;44557;51.862;19.378;2023-02-18T01:26:24;98502.23;;;6.78;68.03
58785;BME280;44557;51.862;19.378;2023-02-18T01:28:26;98522.85;;;6.77;68.37
58785;BME280;44557;51.862;19.378;2023-02-18T01:30:27;98518.34;;;6.76;68.61
58785;BME280;44557;51.862;19.378;2023-02-18T01:32:29;98526.38;;;6.73;68.95
58785;BME280;44557;51.862;19.378;2023-02-18T01:34:30;98517.61;;;6.73;68.70
58785;BME280;44557;51.862;19.378;2023-02-18T01:36:32;98521.46;;;6.71;68.88
58785;BME280;44557;51.862;19.378;2023-02-18T01:38:33;98517.04;;;6.65;68.39
58785;BME280;44557;51.862;19.378;2023-02-18T01:40:35;98516.28;;;6.66;67.62
58785;BME280;44557;51.862;19.378;2023-02-18T01:42:37;98514.83;;;6.67;67.87
58785;BME280;44557;51.862;19.378;2023-02-18T01:44:39;98527.79;;;6.68;67.53
58785;BME280;44557;51.862;19.378;2023-02-18T01:46:41;98524.57;;;6.68;68.00
58785;BME280;44557;51.862;19.378;2023-02-18T01:49:09;98518.77;;;6.65;67.04
58785;BME280;44557;51.862;19.378;2023-02-18T01:53:20;98528.74;;;6.69;66.57
58785;BME280;44557;51.862;19.378;2023-02-18T01:55:25;98521.60;;;6.68;66.40
58785;BME280;44557;51.862;19.378;2023-02-18T01:57:30;98543.88;;;6.68;66.13
58785;BME280;44557;51.862;19.378;2023-02-18T01:59:45;98543.20;;;6.62;66.72
58785;BME280;44557;51.862;19.378;2023-02-18T02:01:48;98531.66;;;6.60;65.75
58785;BME280;44557;51.862;19.378;2023-02-18T02:03:50;98542.16;;;6.61;66.15
58785;BME280;44557;51.862;19.378;2023-02-18T02:05:51;98532.89;;;6.60;65.45
58785;BME280;44557;51.862;19.378;2023-02-18T02:07:53;98532.15;;;6.59;65.60
58785;BME280;44557;51.862;19.378;2023-02-18T02:09:56;98528.55;;;6.59;65.16
58785;BME280;44557;51.862;19.378;2023-02-18T02:14:59;98531.80;;;6.58;64.57
58785;BME280;44557;51.862;19.378;2023-02-18T02:17:12;98540.02;;;6.55;65.50
58785;BME280;44557;51.862;19.378;2023-02-18T02:27:03;98528.48;;;6.40;67.55
58785;BME280;44557;51.862;19.378;2023-02-18T02:32:06;98536.89;;;6.39;67.65
58785;BME280;44557;51.862;19.378;2023-02-18T02:36:53;98543.16;;;6.38;69.13
58785;BME280;44557;51.862;19.378;2023-02-18T02:39:07;98544.48;;;6.35;69.67
58785;BME280;44557;51.862;19.378;2023-02-18T02:43:56;98530.16;;;6.30;69.28
58785;BME280;44557;51.862;19.378;2023-02-18T02:46:05;98538.94;;;6.29;69.53
58785;BME280;44557;51.862;19.378;2023-02-18T02:48:27;98549.30;;;6.28;69.47
58785;BME280;44557;51.862;19.378;2023-02-18T02:50:39;98556.54;;;6.27;70.21
58785;BME280;44557;51.862;19.378;2023-02-18T02:52:46;98565.38;;;6.23;70.37
58785;BME280;44557;51.862;19.378;2023-02-18T02:54:51;98559.10;;;6.22;70.38
58785;BME280;44557;51.862;19.378;2023-02-18T02:57:08;98567.63;;;6.20;70.71
58785;BME280;44557;51.862;19.378;2023-02-18T02:59:14;98564.39;;;6.19;70.70
58785;BME280;44557;51.862;19.378;2023-02-18T03:05:38;98567.52;;;6.15;70.43
58785;BME280;44557;51.862;19.378;2023-02-18T03:12:26;98575.21;;;6.08;71.02
58785;BME280;44557;51.862;19.378;2023-02-18T03:14:43;98583.74;;;6.03;71.23
58785;BME280;44557;51.862;19.378;2023-02-18T03:16:52;98575.37;;;6.01;71.49
58785;BME280;44557;51.862;19.378;2023-02-18T03:21:20;98571.77;;;5.96;71.68
58785;BME280;44557;51.862;19.378;2023-02-18T03:23:27;98585.07;;;5.99;71.91
58785;BME280;44557;51.862;19.378;2023-02-18T03:25:30;98575.45;;;5.99;71.72
58785;BME280;44557;51.862;19.378;2023-02-18T03:27:35;98580.48;;;5.97;71.77
58785;BME280;44557;51.862;19.378;2023-02-18T03:29:39;98578.44;;;5.95;71.95
58785;BME280;44557;51.862;19.378;2023-02-18T03:31:42;98578.02;;;5.92;71.98
58785;BME280;44557;51.862;19.378;2023-02-18T03:34:06;98579.10;;;5.90;72.05
58785;BME280;44557;51.862;19.378;2023-02-18T03:36:10;98590.55;;;5.89;72.25
58785;BME280;44557;51.862;19.378;2023-02-18T03:38:23;98597.71;;;5.83;72.31
58785;BME280;44557;51.862;19.378;2023-02-18T03:40:29;98595.49;;;5.80;73.01
58785;BME280;44557;51.862;19.378;2023-02-18T03:42:32;98601.36;;;5.78;72.93
58785;BME280;44557;51.862;19.378;2023-02-18T03:44:33;98600.94;;;5.77;73.21
58785;BME280;44557;51.862;19.378;2023-02-18T03:46:36;98603.84;;;5.78;73.14
58785;BME280;44557;51.862;19.378;2023-02-18T03:48:38;98605.77;;;5.79;73.60
58785;BME280;44557;51.862;19.378;2023-02-18T03:50:40;98620.80;;;5.84;73.66
58785;BME280;44557;51.862;19.378;2023-02-18T03:52:41;98620.52;;;5.79;73.35
58785;BME280;44557;51.862;19.378;2023-02-18T03:54:43;98620.80;;;5.76;73.69
58785;BME280;44557;51.862;19.378;2023-02-18T03:56:44;98626.63;;;5.77;73.42
58785;BME280;44557;51.862;19.378;2023-02-18T03:58:46;98627.53;;;5.81;73.40
58785;BME280;44557;51.862;19.378;2023-02-18T04:00:47;98641.33;;;5.85;73.91
58785;BME280;44557;51.862;19.378;2023-02-18T04:02:49;98640.04;;;5.85;73.67
58785;BME280;44557;51.862;19.378;2023-02-18T04:04:51;98642.76;;;5.88;74.16
58785;BME280;44557;51.862;19.378;2023-02-18T04:06:52;98644.14;;;5.83;74.57
58785;BME280;44557;51.862;19.378;2023-02-18T04:08:54;98650.13;;;5.85;74.69
58785;BME280;44557;51.862;19.378;2023-02-18T04:10:55;98650.39;;;5.84;74.61
58785;BME280;44557;51.862;19.378;2023-02-18T04:12:57;98649.33;;;5.83;74.83
58785;BME280;44557;51.862;19.378;2023-02-18T04:14:58;98644.18;;;5.85;74.31
58785;BME280;44557;51.862;19.378;2023-02-18T04:17:00;98649.60;;;5.87;74.31
58785;BME280;44557;51.862;19.378;2023-02-18T04:19:01;98651.22;;;5.87;74.19
58785;BME280;44557;51.862;19.378;2023-02-18T04:21:03;98657.27;;;5.86;74.54
58785;BME280;44557;51.862;19.378;2023-02-18T04:23:05;98653.52;;;5.88;74.30
58785;BME280;44557;51.862;19.378;2023-02-18T04:25:07;98656.63;;;5.85;74.89
58785;BME280;44557;51.862;19.378;2023-02-18T04:27:08;98660.54;;;5.87;74.83
58785;BME280;44557;51.862;19.378;2023-02-18T04:29:10;98649.80;;;5.87;74.77
58785;BME280;44557;51.862;19.378;2023-02-18T04:31:11;98658.95;;;5.87;74.71
58785;BME280;44557;51.862;19.378;2023-02-18T04:33:13;98651.54;;;5.79;75.20
58785;BME280;44557;51.862;19.378;2023-02-18T04:35:15;98649.42;;;5.75;75.10
58785;BME280;44557;51.862;19.378;2023-02-18T04:37:17;98653.29;;;5.76;75.23
58785;BME280;44557;51.862;19.378;2023-02-18T04:39:18;98655.95;;;5.72;75.05
58785;BME280;44557;51.862;19.378;2023-02-18T04:41:20;98649.78;;;5.77;74.89
58785;BME280;44557;51.862;19.378;2023-02-18T04:43:22;98657.84;;;5.79;74.93
58785;BME280;44557;51.862;19.378;2023-02-18T04:45:24;98655.86;;;5.80;74.94
58785;BME280;44557;51.862;19.378;2023-02-18T04:47:26;98663.39;;;5.77;75.06
58785;BME280;44557;51.862;19.378;2023-02-18T04:49:27;98646.38;;;5.77;74.95
58785;BME280;44557;51.862;19.378;2023-02-18T04:51:29;98650.59;;;5.77;74.78
58785;BME280;44557;51.862;19.378;2023-02-18T04:53:30;98636.77;;;5.75;75.07
58785;BME280;44557;51.862;19.378;2023-02-18T04:55:32;98643.73;;;5.72;74.79
58785;BME280;44557;51.862;19.378;2023-02-18T04:57:33;98650.39;;;5.70;74.93
58785;BME280;44557;51.862;19.378;2023-02-18T04:59:35;98649.71;;;5.69;74.72
58785;BME280;44557;51.862;19.378;2023-02-18T05:01:36;98652.48;;;5.66;74.89
58785;BME280;44557;51.862;19.378;2023-02-18T05:03:38;98662.22;;;5.67;74.97
58785;BME280;44557;51.862;19.378;2023-02-18T05:05:39;98659.83;;;5.66;74.80
58785;BME280;44557;51.862;19.378;2023-02-18T05:07:42;98659.67;;;5.68;75.07
58785;BME280;44557;51.862;19.378;2023-02-18T05:09:43;98662.65;;;5.64;75.05
58785;BME280;44557;51.862;19.378;2023-02-18T05:11:45;98665.33;;;5.63;75.09
58785;BME280;44557;51.862;19.378;2023-02-18T05:13:47;98666.02;;;5.67;75.20
58785;BME280;44557;51.862;19.378;2023-02-18T05:15:49;98666.91;;;5.62;75.20
58785;BME280;44557;51.862;19.378;2023-02-18T05:17:51;98663.58;;;5.56;75.48
58785;BME280;44557;51.862;19.378;2023-02-18T05:19:52;98666.58;;;5.59;75.79
58785;BME280;44557;51.862;19.378;2023-02-18T05:21:54;98660.98;;;5.56;75.41
58785;BME280;44557;51.862;19.378;2023-02-18T05:23:55;98649.65;;;5.57;75.26
58785;BME280;44557;51.862;19.378;2023-02-18T05:25:57;98661.45;;;5.58;75.01
58785;BME280;44557;51.862;19.378;2023-02-18T05:27:59;98669.08;;;5.55;75.79
58785;BME280;44557;51.862;19.378;2023-02-18T05:30:00;98665.04;;;5.52;75.75
58785;BME280;44557;51.862;19.378;2023-02-18T05:32:02;98659.14;;;5.49;75.71
58785;BME280;44557;51.862;19.378;2023-02-18T05:34:03;98660.89;;;5.54;75.59
58785;BME280;44557;51.862;19.378;2023-02-18T05:36:05;98657.06;;;5.53;75.52
58785;BME280;44557;51.862;19.378;2023-02-18T05:38:07;98671.33;;;5.55;75.48
58785;BME280;44557;51.862;19.378;2023-02-18T05:40:10;98673.88;;;5.52;75.48
58785;BME280;44557;51.862;19.378;2023-02-18T05:42:12;98681.30;;;5.54;75.79
58785;BME280;44557;51.862;19.378;2023-02-18T05:44:13;98685.59;;;5.54;75.95
58785;BME280;44557;51.862;19.378;2023-02-18T05:46:30;98687.02;;;5.53;75.70
58785;BME280;44557;51.862;19.378;2023-02-18T05:48:32;98678.72;;;5.49;75.86
58785;BME280;44557;51.862;19.378;2023-02-18T05:50:33;98690.16;;;5.50;75.53
58785;BME280;44557;51.862;19.378;2023-02-18T05:52:35;98689.69;;;5.46;75.72
58785;BME280;44557;51.862;19.378;2023-02-18T05:54:37;98692.66;;;5.44;75.81
58785;BME280;44557;51.862;19.378;2023-02-18T05:56:38;98701.20;;;5.43;75.64
58785;BME280;44557;51.862;19.378;2023-02-18T05:58:40;98701.27;;;5.49;75.65
58785;BME280;44557;51.862;19.378;2023-02-18T06:00:41;98695.04;;;5.45;76.16
58785;BME280;44557;51.862;19.378;2023-02-18T06:02:43;98685.50;;;5.43;75.99
58785;BME280;44557;51.862;19.378;2023-02-18T06:04:45;98700.98;;;5.45;75.87
58785;BME280;44557;51.862;19.378;2023-02-18T06:06:47;98708.92;;;5.45;75.92
58785;BME280;44557;51.862;19.378;2023-02-18T06:08:48;98709.89;;;5.49;75.73
58785;BME280;44557;51.862;19.378;2023-02-18T06:10:50;98706.65;;;5.56;75.50
58785;BME280;44557;51.862;19.378;2023-02-18T06:12:51;98709.64;;;5.60;75.37
58785;BME280;44557;51.862;19.378;2023-02-18T06:14:53;98711.98;;;5.62;75.50
58785;BME280;44557;51.862;19.378;2023-02-18T06:16:54;98709.51;;;5.61;75.24
58785;BME280;44557;51.862;19.378;2023-02-18T06:18:56;98719.48;;;5.59;75.28
58785;BME280;44557;51.862;19.378;2023-02-18T06:20:57;98711.02;;;5.54;75.59
58785;BME280;44557;51.862;19.378;2023-02-18T06:22:59;98713.30;;;5.56;75.61
58785;BME280;44557;51.862;19.378;2023-02-18T06:25:00;98716.71;;;5.56;75.60
58785;BME280;44557;51.862;19.378;2023-02-18T06:27:03;98719.39;;;5.52;75.96
58785;BME280;44557;51.862;19.378;2023-02-18T06:29:04;98724.03;;;5.51;75.58
58785;BME280;44557;51.862;19.378;2023-02-18T06:31:06;98728.86;;;5.48;76.04
58785;BME280;44557;51.862;19.378;2023-02-18T06:33:08;98733.02;;;5.50;75.97
58785;BME280;44557;51.862;19.378;2023-02-18T06:35:09;98722.64;;;5.52;75.66
58785;BME280;44557;51.862;19.378;2023-02-18T06:37:11;98727.85;;;5.51;75.54
58785;BME280;44557;51.862;19.378;2023-02-18T06:39:12;98730.76;;;5.50;75.61
58785;BME280;44557;51.862;19.378;2023-02-18T06:41:14;98727.11;;;5.55;75.09
58785;BME280;44557;51.862;19.378;2023-02-18T06:43:15;98713.91;;;5.54;75.17
58785;BME280;44557;51.862;19.378;2023-02-18T06:45:17;98723.23;;;5.55;74.91
58785;BME280;44557;51.862;19.378;2023-02-18T06:47:19;98720.33;;;5.62;74.60
58785;BME280;44557;51.862;19.378;2023-02-18T06:49:20;98726.17;;;5.66;74.84
58785;BME280;44557;51.862;19.378;2023-02-18T06:51:22;98718.55;;;5.76;74.21
58785;BME280;44557;51.862;19.378;2023-02-18T06:53:24;98738.93;;;6.51;72.48
58785;BME280;44557;51.862;19.378;2023-02-18T06:55:25;98737.05;;;6.67;70.94
58785;BME280;44557;51.862;19.378;2023-02-18T06:57:27;98738.19;;;7.03;69.52
58785;BME280;44557;51.862;19.378;2023-02-18T06:59:28;98745.27;;;6.89;69.32
58785;BME280;44557;51.862;19.378;2023-02-18T07:01:30;98729.73;;;7.01;68.90
58785;BME280;44557;51.862;19.378;2023-02-18T07:03:31;98731.08;;;7.59;67.28
58785;BME280;44557;51.862;19.378;2023-02-18T07:05:33;98736.44;;;8.85;63.45
58785;BME280;44557;51.862;19.378;2023-02-18T07:07:35;98724.74;;;9.43;60.45
58785;BME280;44557;51.862;19.378;2023-02-18T07:09:36;98738.66;;;10.08;58.53
58785;BME280;44557;51.862;19.378;2023-02-18T07:11:38;98737.43;;;10.42;56.84
58785;BME280;44557;51.862;19.378;2023-02-18T07:13:40;98731.35;;;10.60;55.85
58785;BME280;44557;51.862;19.378;2023-02-18T07:15:41;98742.45;;;11.03;54.31
58785;BME280;44557;51.862;19.378;2023-02-18T07:17:43;98745.66;;;11.34;53.05
58785;BME280;44557;51.862;19.378;2023-02-18T07:19:44;98747.21;;;11.34;53.11
58785;BME280;44557;51.862;19.378;2023-02-18T07:21:45;98760.42;;;11.24;53.20
58785;BME280;44557;51.862;19.378;2023-02-18T07:23:47;98765.45;;;11.40;52.37
58785;BME280;44557;51.862;19.378;2023-02-18T07:25:48;98764.95;;;10.38;55.13
58785;BME280;44557;51.862;19.378;2023-02-18T07:27:50;98773.62;;;9.68;56.87
58785;BME280;44557;51.862;19.378;2023-02-18T07:29:52;98777.66;;;9.13;58.79
58785;BME280;44557;51.862;19.378;2023-02-18T07:31:54;98779.19;;;8.71;60.29
58785;BME280;44557;51.862;19.378;2023-02-18T07:33:56;98782.56;;;8.31;61.96
58785;BME280;44557;51.862;19.378;2023-02-18T07:35:58;98776.23;;;8.98;60.51
58785;BME280;44557;51.862;19.378;2023-02-18T07:38:00;98760.86;;;8.71;60.87
58785;BME280;44557;51.862;19.378;2023-02-18T07:40:03;98768.88;;;9.15;59.86
58785;BME280;44557;51.862;19.378;2023-02-18T07:42:05;98767.52;;;10.31;56.32
58785;BME280;44557;51.862;19.378;2023-02-18T07:44:07;98765.52;;;10.36;55.84
58785;BME280;44557;51.862;19.378;2023-02-18T07:46:08;98766.96;;;9.67;56.70
58785;BME280;44557;51.862;19.378;2023-02-18T07:48:10;98766.50;;;9.92;56.94
58785;BME280;44557;51.862;19.378;2023-02-18T07:50:12;98760.95;;;9.37;57.94
58785;BME280;44557;51.862;19.378;2023-02-18T07:52:14;98768.77;;;9.35;58.39
58785;BME280;44557;51.862;19.378;2023-02-18T07:54:16;98775.98;;;8.98;60.22
58785;BME280;44557;51.862;19.378;2023-02-18T07:56:18;98772.50;;;8.61;61.75
58785;BME280;44557;51.862;19.378;2023-02-18T07:58:25;98765.67;;;8.64;61.72
58785;BME280;44557;51.862;19.378;2023-02-18T08:00:27;98763.48;;;8.65;61.75
58785;BME280;44557;51.862;19.378;2023-02-18T08:02:28;98767.18;;;8.31;62.51
58785;BME280;44557;51.862;19.378;2023-02-18T08:04:30;98776.42;;;8.12;63.29
58785;BME280;44557;51.862;19.378;2023-02-18T08:06:37;98763.63;;;7.94;64.32
58785;BME280;44557;51.862;19.378;2023-02-18T08:08:38;98769.10;;;7.86;64.11
58785;BME280;44557;51.862;19.378;2023-02-18T08:10:40;98771.58;;;7.83;64.68
58785;BME280;44557;51.862;19.378;2023-02-18T08:12:42;98771.63;;;7.77;65.19
58785;BME280;44557;51.862;19.378;2023-02-18T08:14:44;98766.35;;;8.89;61.70
58785;BME280;44557;51.862;19.378;2023-02-18T08:16:45;98769.86;;;8.45;61.47
58785;BME280;44557;51.862;19.378;2023-02-18T08:18:48;98770.48;;;7.85;63.50
58785;BME280;44557;51.862;19.378;2023-02-18T08:20:50;98778.84;;;7.61;64.17
58785;BME280;44557;51.862;19.378;2023-02-18T08:22:52;98776.92;;;7.64;65.17
58785;BME280;44557;51.862;19.378;2023-02-18T08:24:54;98765.52;;;7.99;64.26
58785;BME280;44557;51.862;19.378;2023-02-18T08:26:56;98765.67;;;7.58;65.02
58785;BME280;44557;51.862;19.378;2023-02-18T08:28:58;98768.50;;;7.67;65.02
58785;BME280;44557;51.862;19.378;2023-02-18T08:30:59;98767.95;;;7.46;66.14
58785;BME280;44557;51.862;19.378;2023-02-18T08:33:01;98770.70;;;7.40;66.52
58785;BME280;44557;51.862;19.378;2023-02-18T08:35:03;98773.39;;;7.52;66.93
58785;BME280;44557;51.862;19.378;2023-02-18T08:37:05;98759.67;;;7.45;66.71
58785;BME280;44557;51.862;19.378;2023-02-18T08:39:06;98766.66;;;7.52;66.15
58785;BME280;44557;51.862;19.378;2023-02-18T08:41:08;98761.71;;;7.47;66.71
58785;BME280;44557;51.862;19.378;2023-02-18T08:43:10;98749.16;;;7.71;65.29
58785;BME280;44557;51.862;19.378;2023-02-18T08:45:12;98767.31;;;7.60;66.11
58785;BME280;44557;51.862;19.378;2023-02-18T08:47:13;98760.11;;;7.58;66.01
58785;BME280;44557;51.862;19.378;2023-02-18T08:49:15;98749.70;;;7.44;66.03
58785;BME280;44557;51.862;19.378;2023-02-18T08:51:20;98767.39;;;7.19;66.63
58785;BME280;44557;51.862;19.378;2023-02-18T08:53:22;98762.17;;;7.11;67.40
58785;BME280;44557;51.862;19.378;2023-02-18T08:55:23;98758.28;;;7.05;68.09
58785;BME280;44557;51.862;19.378;2023-02-18T08:57:26;98756.14;;;6.91;68.51
58785;BME280;44557;51.862;19.378;2023-02-18T08:59:28;98758.95;;;6.69;68.67
58785;BME280;44557;51.862;19.378;2023-02-18T09:01:30;98764.64;;;6.60;69.61
58785;BME280;44557;51.862;19.378;2023-02-18T09:03:31;98776.83;;;6.54;69.78
58785;BME280;44557;51.862;19.378;2023-02-18T09:05:33;98771.48;;;6.49;70.32
58785;BME280;44557;51.862;19.378;2023-02-18T09:07:35;98765.45;;;6.43;70.47
58785;BME280;44557;51.862;19.378;2023-02-18T09:09:37;98768.27;;;6.41;71.29
58785;BME280;44557;51.862;19.378;2023-02-18T09:11:38;98766.77;;;6.38;70.79
58785;BME280;44557;51.862;19.378;2023-02-18T09:13:40;98765.02;;;6.33;71.36
58785;BME280;44557;51.862;19.378;2023-02-18T09:15:42;98764.34;;;6.32;71.27
58785;BME280;44557;51.862;19.378;2023-02-18T09:17:43;98769.45;;;6.33;71.74
58785;BME280;44557;51.862;19.378;2023-02-18T09:19:45;98771.32;;;6.28;71.78
58785;BME280;44557;51.862;19.378;2023-02-18T09:21:46;98763.71;;;6.22;71.73
58785;BME280;44557;51.862;19.378;2023-02-18T09:23:48;98756.35;;;6.19;71.22
58785;BME280;44557;51.862;19.378;2023-02-18T09:25:50;98770.66;;;6.22;71.68
58785;BME280;44557;51.862;19.378;2023-02-18T09:27:52;98777.06;;;6.21;71.84
58785;BME280;44557;51.862;19.378;2023-02-18T09:29:53;98782.48;;;6.18;71.97
58785;BME280;44557;51.862;19.378;2023-02-18T09:31:59;98787.98;;;6.19;72.29
58785;BME280;44557;51.862;19.378;2023-02-18T09:34:02;98772.98;;;6.19;71.73
58785;BME280;44557;51.862;19.378;2023-02-18T09:36:04;98780.99;;;6.20;71.58
58785;BME280;44557;51.862;19.378;2023-02-18T09:38:08;98777.86;;;6.22;71.72
58785;BME280;44557;51.862;19.378;2023-02-18T09:40:28;98789.08;;;6.23;71.47
58785;BME280;44557;51.862;19.378;2023-02-18T09:42:32;98792.78;;;6.24;71.69
58785;BME280;44557;51.862;19.378;2023-02-18T09:44:45;98791.63;;;6.26;72.05
58785;BME280;44557;51.862;19.378;2023-02-18T09:47:01;98791.11;;;6.33;72.01
58785;BME280;44557;51.862;19.378;2023-02-18T09:49:07;98780.14;;;6.32;71.22
58785;BME280;44557;51.862;19.378;2023-02-18T09:51:14;98785.27;;;6.35;71.08
58785;BME280;44557;51.862;19.378;2023-02-18T09:53:16;98794.83;;;6.40;70.45
58785;BME280;44557;51.862;19.378;2023-02-18T09:55:22;98792.39;;;6.42;70.88
58785;BME280;44557;51.862;19.378;2023-02-18T09:57:40;98772.89;;;6.43;70.12
58785;BME280;44557;51.862;19.378;2023-02-18T09:59:43;98776.03;;;6.43;69.43
58785;BME280;44557;51.862;19.378;2023-02-18T10:01:47;98779.85;;;6.43;69.55
58785;BME280;44557;51.862;19.378;2023-02-18T10:03:50;98779.13;;;6.42;70.03
58785;BME280;44557;51.862;19.378;2023-02-18T10:06:30;98770.77;;;6.38;69.75
58785;BME280;44557;51.862;19.378;2023-02-18T10:08:35;98786.77;;;6.42;69.51
58785;BME280;44557;51.862;19.378;2023-02-18T10:10:43;98792.80;;;6.42;70.23
58785;BME280;44557;51.862;19.378;2023-02-18T10:12:44;98785.91;;;6.48;70.22
58785;BME280;44557;51.862;19.378;2023-02-18T10:14:58;98789.90;;;6.44;69.96
58785;BME280;44557;51.862;19.378;2023-02-18T10:17:00;98788.50;;;6.46;69.88
58785;BME280;44557;51.862;19.378;2023-02-18T10:19:38;98775.80;;;6.39;69.50
58785;BME280;44557;51.862;19.378;2023-02-18T10:21:41;98788.61;;;6.43;70.22
58785;BME280;44557;51.862;19.378;2023-02-18T10:24:00;98785.91;;;6.48;70.35
58785;BME280;44557;51.862;19.378;2023-02-18T10:26:06;98782.46;;;6.48;70.35
58785;BME280;44557;51.862;19.378;2023-02-18T10:28:09;98777.83;;;6.53;70.10
58785;BME280;44557;51.862;19.378;2023-02-18T10:32:22;98761.70;;;6.55;68.88
58785;BME280;44557;51.862;19.378;2023-02-18T10:34:42;98766.33;;;6.62;68.66
58785;BME280;44557;51.862;19.378;2023-02-18T10:36:52;98753.92;;;6.65;68.83
58785;BME280;44557;51.862;19.378;2023-02-18T10:39:04;98748.56;;;6.68;68.83
58785;BME280;44557;51.862;19.378;2023-02-18T10:44:19;98745.84;;;6.81;67.54
58785;BME280;44557;51.862;19.378;2023-02-18T10:48:36;98744.59;;;6.89;67.41
58785;BME280;44557;51.862;19.378;2023-02-18T10:50:42;98744.42;;;6.91;66.67
58785;BME280;44557;51.862;19.378;2023-02-18T10:52:46;98740.45;;;6.87;66.70
58785;BME280;44557;51.862;19.378;2023-02-18T10:54:59;98729.01;;;6.86;66.56
58785;BME280;44557;51.862;19.378;2023-02-18T10:57:01;98743.29;;;6.90;66.46
58785;BME280;44557;51.862;19.378;2023-02-18T10:59:19;98739.77;;;6.92;66.65
58785;BME280;44557;51.862;19.378;2023-02-18T11:01:22;98724.58;;;7.01;66.70
58785;BME280;44557;51.862;19.378;2023-02-18T11:03:47;98726.85;;;7.08;66.82
58785;BME280;44557;51.862;19.378;2023-02-18T11:05:52;98717.23;;;7.12;66.14
58785;BME280;44557;51.862;19.378;2023-02-18T11:07:56;98720.11;;;7.16;65.55
58785;BME280;44557;51.862;19.378;2023-02-18T11:10:12;98720.61;;;7.18;64.97
58785;BME280;44557;51.862;19.378;2023-02-18T11:14:46;98717.05;;;7.25;64.87
58785;BME280;44557;51.862;19.378;2023-02-18T11:16:48;98705.42;;;7.22;64.88
58785;BME280;44557;51.862;19.378;2023-02-18T11:18:53;98697.80;;;7.28;65.29
58785;BME280;44557;51.862;19.378;2023-02-18T11:21:04;98705.38;;;7.30;64.49
58785;BME280;44557;51.862;19.378;2023-02-18T11:25:25;98699.86;;;7.45;64.91
58785;BME280;44557;51.862;19.378;2023-02-18T11:27:37;98702.45;;;7.48;64.56
58785;BME280;44557;51.862;19.378;2023-02-18T11:29:41;98700.48;;;7.64;65.43
58785;BME280;44557;51.862;19.378;2023-02-18T11:31:46;98700.22;;;7.68;64.69
58785;BME280;44557;51.862;19.378;2023-02-18T11:35:54;98684.17;;;7.61;63.46
58785;BME280;44557;51.862;19.378;2023-02-18T11:37:57;98684.77;;;7.63;64.57
58785;BME280;44557;51.862;19.378;2023-02-18T11:40:00;98682.68;;;7.68;63.80
58785;BME280;44557;51.862;19.378;2023-02-18T11:42:03;98685.15;;;7.77;64.41